sensor_id;sensor_type;location;lat;lon;timestamp;pressure;altitude;pressure_sealevel;temperature;humidity
62025;BME280;47978;49.118;12.146;2023-02-26T00:01:26;96711.75;;;-0.35;83.87
62025;BME280;47978;49.118;12.146;2023-02-26T00:05:28;96716.19;;;-0.24;82.43
62025;BME280;47978;49.118;12.146;2023-02-26T00:09:29;96724.06;;;-0.27;82.84
62025;BME280;47978;49.118;12.146;2023-02-26T00:13:32;96722.53;;;-0.40;82.86
62025;BME280;47978;49.118;12.146;2023-02-26T00:17:36;96729.72;;;-0.29;82.83
62025;BME280;47978;49.118;12.146;2023-02-26T00:21:39;96734.84;;;-0.32;81.08
62025;BME280;47978;49.118;12.146;2023-02-26T00:25:41;96743.16;;;-0.44;80.97
62025;BME280;47978;49.118;12.146;2023-02-26T00:29:44;96747.31;;;-0.36;80.92
62025;BME280;47978;49.118;12.146;2023-02-26T00:33:45;96747.31;;;-0.58;80.77
62025;BME280;47978;49.118;12.146;2023-02-26T00:37:51;96753.72;;;-0.48;80.45
62025;BME280;47978;49.118;12.146;2023-02-26T00:41:55;96763.75;;;-0.70;82.54
62025;BME280;47978;49.118;12.146;2023-02-26T00:45:59;96762.50;;;-0.62;81.58
62025;BME280;47978;49.118;12.146;2023-02-26T00:50:05;96763.47;;;-0.69;82.18
62025;BME280;47978;49.118;12.146;2023-02-26T00:54:11;96770.19;;;-0.76;82.26
62025;BME280;47978;49.118;12.146;2023-02-26T00:58:16;96767.41;;;-0.81;82.68
62025;BME280;47978;49.118;12.146;2023-02-26T01:02:19;96772.84;;;-0.81;82.38
62025;BME280;47978;49.118;12.146;2023-02-26T01:06:21;96775.59;;;-0.98;83.23
62025;BME280;47978;49.118;12.146;2023-02-26T01:10:24;96775.50;;;-1.03;83.30
62025;BME280;47978;49.118;12.146;2023-02-26T01:14:26;96781.50;;;-1.01;82.98
62025;BME280;47978;49.118;12.146;2023-02-26T01:18:30;96772.41;;;-1.12;82.94
62025;BME280;47978;49.118;12.146;2023-02-26T01:22:34;96775.44;;;-1.25;84.25
62025;BME280;47978;49.118;12.146;2023-02-26T01:26:37;96776.53;;;-1.26;84.33
62025;BME280;47978;49.118;12.146;2023-02-26T01:30:39;96774.50;;;-1.36;84.71
62025;BME280;47978;49.118;12.146;2023-02-26T01:34:43;96773.75;;;-1.31;83.82
62025;BME280;47978;49.118;12.146;2023-02-26T01:38:48;96772.03;;;-1.54;85.50
62025;BME280;47978;49.118;12.146;2023-02-26T01:42:52;96763.66;;;-1.70;86.28
62025;BME280;47978;49.118;12.146;2023-02-26T01:47:01;96769.22;;;-1.60;85.64
62025;BME280;47978;49.118;12.146;2023-02-26T01:51:04;96779.94;;;-1.36;84.34
62025;BME280;47978;49.118;12.146;2023-02-26T01:55:06;96775.81;;;-1.55;84.40
62025;BME280;47978;49.118;12.146;2023-02-26T01:59:08;96798.09;;;-1.53;83.79
62025;BME280;47978;49.118;12.146;2023-02-26T02:03:10;96794.78;;;-1.55;84.63
62025;BME280;47978;49.118;12.146;2023-02-26T02:07:13;96795.94;;;-1.51;83.60
62025;BME280;47978;49.118;12.146;2023-02-26T02:11:15;96796.03;;;-1.46;82.25
62025;BME280;47978;49.118;12.146;2023-02-26T02:15:18;96802.94;;;-1.39;81.71
62025;BME280;47978;49.118;12.146;2023-02-26T02:19:25;96808.34;;;-1.55;81.03
62025;BME280;47978;49.118;12.146;2023-02-26T02:23:31;96805.72;;;-1.50;81.75
62025;BME280;47978;49.118;12.146;2023-02-26T02:27:38;96811.78;;;-1.43;81.34
62025;BME280;47978;49.118;12.146;2023-02-26T02:31:47;96815.81;;;-1.46;80.14
62025;BME280;47978;49.118;12.146;2023-02-26T02:35:51;96817.06;;;-1.53;80.85
62025;BME280;47978;49.118;12.146;2023-02-26T02:39:55;96816.56;;;-1.33;80.39
62025;BME280;47978;49.118;12.146;2023-02-26T02:43:59;96820.00;;;-1.38;80.07
62025;BME280;47978;49.118;12.146;2023-02-26T02:48:04;96827.97;;;-1.48;80.41
62025;BME280;47978;49.118;12.146;2023-02-26T02:52:09;96828.72;;;-1.53;79.82
62025;BME280;47978;49.118;12.146;2023-02-26T02:56:14;96828.06;;;-1.43;80.07
62025;BME280;47978;49.118;12.146;2023-02-26T03:00:18;96836.28;;;-1.38;79.67
62025;BME280;47978;49.118;12.146;2023-02-26T03:04:22;96838.25;;;-1.50;80.44
62025;BME280;47978;49.118;12.146;2023-02-26T03:08:25;96842.19;;;-1.41;81.07
62025;BME280;47978;49.118;12.146;2023-02-26T03:12:30;96856.16;;;-1.49;81.27
62025;BME280;47978;49.118;12.146;2023-02-26T03:16:37;96858.16;;;-1.45;80.91
62025;BME280;47978;49.118;12.146;2023-02-26T03:20:45;96870.78;;;-1.50;81.48
62025;BME280;47978;49.118;12.146;2023-02-26T03:24:53;96874.38;;;-1.62;81.87
62025;BME280;47978;49.118;12.146;2023-02-26T03:28:56;96875.38;;;-1.68;83.03
62025;BME280;47978;49.118;12.146;2023-02-26T03:33:01;96878.56;;;-1.54;81.40
62025;BME280;47978;49.118;12.146;2023-02-26T03:37:06;96877.75;;;-1.54;80.95
62025;BME280;47978;49.118;12.146;2023-02-26T03:41:09;96885.38;;;-1.51;80.59
62025;BME280;47978;49.118;12.146;2023-02-26T03:45:12;96879.16;;;-1.52;79.63
62025;BME280;47978;49.118;12.146;2023-02-26T03:49:16;96894.53;;;-1.41;79.06
62025;BME280;47978;49.118;12.146;2023-02-26T03:53:21;96897.06;;;-1.51;78.83
62025;BME280;47978;49.118;12.146;2023-02-26T03:57:24;96898.72;;;-1.50;79.29
62025;BME280;47978;49.118;12.146;2023-02-26T04:01:28;96905.44;;;-1.52;79.28
62025;BME280;47978;49.118;12.146;2023-02-26T04:05:33;96897.31;;;-1.52;78.90
62025;BME280;47978;49.118;12.146;2023-02-26T04:09:37;96907.91;;;-1.51;79.83
62025;BME280;47978;49.118;12.146;2023-02-26T04:13:40;96906.31;;;-1.64;80.42
62025;BME280;47978;49.118;12.146;2023-02-26T04:17:41;96902.97;;;-1.54;81.32
62025;BME280;47978;49.118;12.146;2023-02-26T04:21:43;96910.69;;;-1.46;80.79
62025;BME280;47978;49.118;12.146;2023-02-26T04:25:46;96906.53;;;-1.53;80.02
62025;BME280;47978;49.118;12.146;2023-02-26T04:29:47;96920.06;;;-1.53;81.65
62025;BME280;47978;49.118;12.146;2023-02-26T04:33:48;96924.53;;;-1.47;81.31
62025;BME280;47978;49.118;12.146;2023-02-26T04:37:50;96919.09;;;-1.47;80.81
62025;BME280;47978;49.118;12.146;2023-02-26T04:41:53;96933.19;;;-1.62;81.53
62025;BME280;47978;49.118;12.146;2023-02-26T04:45:54;96934.28;;;-1.46;80.20
62025;BME280;47978;49.118;12.146;2023-02-26T04:49:56;96934.19;;;-1.51;80.19
62025;BME280;47978;49.118;12.146;2023-02-26T04:53:57;96935.09;;;-1.46;80.85
62025;BME280;47978;49.118;12.146;2023-02-26T04:58:00;96946.09;;;-1.52;80.69
62025;BME280;47978;49.118;12.146;2023-02-26T05:02:01;96950.56;;;-1.46;80.31
62025;BME280;47978;49.118;12.146;2023-02-26T05:06:03;96955.38;;;-1.48;81.21
62025;BME280;47978;49.118;12.146;2023-02-26T05:10:05;96946.81;;;-1.57;80.32
62025;BME280;47978;49.118;12.146;2023-02-26T05:14:08;96964.41;;;-1.60;81.10
62025;BME280;47978;49.118;12.146;2023-02-26T05:18:09;96953.00;;;-1.62;82.29
62025;BME280;47978;49.118;12.146;2023-02-26T05:22:11;96962.13;;;-1.51;82.22
62025;BME280;47978;49.118;12.146;2023-02-26T05:26:12;96964.75;;;-1.56;81.96
62025;BME280;47978;49.118;12.146;2023-02-26T05:30:15;96972.78;;;-1.61;82.36
62025;BME280;47978;49.118;12.146;2023-02-26T05:34:17;96975.34;;;-1.54;81.91
62025;BME280;47978;49.118;12.146;2023-02-26T05:38:18;96983.00;;;-1.51;81.82
62025;BME280;47978;49.118;12.146;2023-02-26T05:42:20;96982.16;;;-1.52;81.83
62025;BME280;47978;49.118;12.146;2023-02-26T05:46:23;96984.69;;;-1.62;81.96
62025;BME280;47978;49.118;12.146;2023-02-26T05:50:25;96991.69;;;-1.78;82.70
62025;BME280;47978;49.118;12.146;2023-02-26T05:54:26;96986.38;;;-1.73;82.82
62025;BME280;47978;49.118;12.146;2023-02-26T05:58:28;96999.94;;;-1.73;82.12
62025;BME280;47978;49.118;12.146;2023-02-26T06:02:30;97009.53;;;-1.65;81.87
62025;BME280;47978;49.118;12.146;2023-02-26T06:06:32;97016.28;;;-1.68;81.30
62025;BME280;47978;49.118;12.146;2023-02-26T06:10:33;97024.69;;;-1.81;82.38
62025;BME280;47978;49.118;12.146;2023-02-26T06:14:35;97022.81;;;-1.92;83.25
62025;BME280;47978;49.118;12.146;2023-02-26T06:18:37;97031.28;;;-1.89;83.13
62025;BME280;47978;49.118;12.146;2023-02-26T06:22:39;97045.16;;;-1.85;82.98
62025;BME280;47978;49.118;12.146;2023-02-26T06:26:40;97049.28;;;-1.71;81.79
62025;BME280;47978;49.118;12.146;2023-02-26T06:30:42;97055.63;;;-1.53;80.15
62025;BME280;47978;49.118;12.146;2023-02-26T06:34:45;97060.69;;;-1.57;80.32
62025;BME280;47978;49.118;12.146;2023-02-26T06:38:46;97060.59;;;-1.74;81.77
62025;BME280;47978;49.118;12.146;2023-02-26T06:42:48;97065.63;;;-1.54;81.06
62025;BME280;47978;49.118;12.146;2023-02-26T06:46:49;97074.22;;;-1.57;81.36
62025;BME280;47978;49.118;12.146;2023-02-26T06:50:52;97083.28;;;-1.51;81.08
62025;BME280;47978;49.118;12.146;2023-02-26T06:54:53;97086.22;;;-1.41;81.63
62025;BME280;47978;49.118;12.146;2023-02-26T06:58:55;97090.94;;;-1.37;81.85
62025;BME280;47978;49.118;12.146;2023-02-26T07:02:56;97094.84;;;-1.04;79.21
62025;BME280;47978;49.118;12.146;2023-02-26T07:06:59;97107.38;;;-1.15;80.29
62025;BME280;47978;49.118;12.146;2023-02-26T07:11:00;97100.41;;;-1.10;80.06
62025;BME280;47978;49.118;12.146;2023-02-26T07:15:02;97114.69;;;-0.86;79.14
62025;BME280;47978;49.118;12.146;2023-02-26T07:19:03;97121.00;;;-0.69;78.38
62025;BME280;47978;49.118;12.146;2023-02-26T07:23:06;97120.66;;;-0.73;78.41
62025;BME280;47978;49.118;12.146;2023-02-26T07:27:07;97120.88;;;-0.62;79.16
62025;BME280;47978;49.118;12.146;2023-02-26T07:31:09;97139.16;;;-0.41;78.81
62025;BME280;47978;49.118;12.146;2023-02-26T07:35:11;97141.81;;;-0.12;76.48
62025;BME280;47978;49.118;12.146;2023-02-26T07:39:13;97154.00;;;-0.15;76.50
62025;BME280;47978;49.118;12.146;2023-02-26T07:43:15;97163.56;;;-0.12;77.53
62025;BME280;47978;49.118;12.146;2023-02-26T07:47:16;97164.16;;;0.07;76.55
62025;BME280;47978;49.118;12.146;2023-02-26T07:51:18;97177.06;;;-0.01;76.92
62025;BME280;47978;49.118;12.146;2023-02-26T07:55:20;97184.31;;;0.28;75.91
62025;BME280;47978;49.118;12.146;2023-02-26T07:59:22;97186.22;;;0.44;75.30
62025;BME280;47978;49.118;12.146;2023-02-26T08:03:23;97190.00;;;0.60;76.55
62025;BME280;47978;49.118;12.146;2023-02-26T08:07:24;97189.00;;;0.88;75.48
62025;BME280;47978;49.118;12.146;2023-02-26T08:11:27;97194.75;;;0.70;74.65
62025;BME280;47978;49.118;12.146;2023-02-26T08:15:28;97196.94;;;0.89;75.04
62025;BME280;47978;49.118;12.146;2023-02-26T08:19:30;97202.44;;;1.17;74.17
62025;BME280;47978;49.118;12.146;2023-02-26T08:23:31;97203.03;;;1.41;74.54
62025;BME280;47978;49.118;12.146;2023-02-26T08:27:34;97195.56;;;1.80;72.33
62025;BME280;47978;49.118;12.146;2023-02-26T08:31:36;97211.00;;;2.29;71.72
62025;BME280;47978;49.118;12.146;2023-02-26T08:35:37;97213.03;;;2.43;70.50
62025;BME280;47978;49.118;12.146;2023-02-26T08:39:39;97215.94;;;2.32;68.58
62025;BME280;47978;49.118;12.146;2023-02-26T08:43:41;97215.13;;;2.68;69.13
62025;BME280;47978;49.118;12.146;2023-02-26T08:47:43;97225.72;;;2.60;68.72
62025;BME280;47978;49.118;12.146;2023-02-26T08:51:57;97231.75;;;2.67;67.65
62025;BME280;47978;49.118;12.146;2023-02-26T08:55:58;97241.84;;;2.29;69.16
62025;BME280;47978;49.118;12.146;2023-02-26T09:00:02;97244.94;;;2.11;69.04
62025;BME280;47978;49.118;12.146;2023-02-26T09:04:03;97254.75;;;2.12;69.77
62025;BME280;47978;49.118;12.146;2023-02-26T09:08:04;97267.31;;;2.13;69.45
62025;BME280;47978;49.118;12.146;2023-02-26T09:12:06;97270.22;;;1.79;69.82
62025;BME280;47978;49.118;12.146;2023-02-26T09:16:09;97274.66;;;1.85;71.02
62025;BME280;47978;49.118;12.146;2023-02-26T09:20:11;97280.66;;;1.87;69.64
62025;BME280;47978;49.118;12.146;2023-02-26T09:24:12;97281.25;;;1.67;71.38
62025;BME280;47978;49.118;12.146;2023-02-26T09:28:14;97285.50;;;1.80;71.04
62025;BME280;47978;49.118;12.146;2023-02-26T09:32:16;97285.19;;;2.25;70.26
62025;BME280;47978;49.118;12.146;2023-02-26T09:36:18;97283.22;;;2.53;69.68
62025;BME280;47978;49.118;12.146;2023-02-26T09:40:21;97296.75;;;2.11;68.76
62025;BME280;47978;49.118;12.146;2023-02-26T09:44:24;97305.66;;;2.28;69.51
62025;BME280;47978;49.118;12.146;2023-02-26T09:48:27;97305.59;;;2.23;68.96
62025;BME280;47978;49.118;12.146;2023-02-26T09:52:32;97314.69;;;2.07;69.61
62025;BME280;47978;49.118;12.146;2023-02-26T09:56:35;97318.84;;;1.87;67.91
62025;BME280;47978;49.118;12.146;2023-02-26T10:00:39;97311.94;;;1.79;68.52
62025;BME280;47978;49.118;12.146;2023-02-26T10:04:49;97318.31;;;1.90;67.91
62025;BME280;47978;49.118;12.146;2023-02-26T10:08:55;97323.44;;;2.31;67.67
62025;BME280;47978;49.118;12.146;2023-02-26T10:12:59;97325.63;;;2.07;67.72
62025;BME280;47978;49.118;12.146;2023-02-26T10:17:02;97335.13;;;1.82;69.12
62025;BME280;47978;49.118;12.146;2023-02-26T10:21:08;97340.25;;;2.22;67.46
62025;BME280;47978;49.118;12.146;2023-02-26T10:25:13;97337.63;;;2.60;65.62
62025;BME280;47978;49.118;12.146;2023-02-26T10:29:16;97344.25;;;2.42;64.97
62025;BME280;47978;49.118;12.146;2023-02-26T10:33:25;97344.00;;;2.70;64.65
62025;BME280;47978;49.118;12.146;2023-02-26T10:37:35;97349.53;;;2.48;63.12
62025;BME280;47978;49.118;12.146;2023-02-26T10:41:38;97362.47;;;2.90;65.10
62025;BME280;47978;49.118;12.146;2023-02-26T10:45:43;97354.66;;;3.42;63.54
62025;BME280;47978;49.118;12.146;2023-02-26T10:49:50;97364.63;;;3.63;61.78
62025;BME280;47978;49.118;12.146;2023-02-26T10:53:54;97368.81;;;3.38;61.48
62025;BME280;47978;49.118;12.146;2023-02-26T10:57:59;97366.75;;;3.51;60.86
62025;BME280;47978;49.118;12.146;2023-02-26T11:02:02;97379.69;;;2.91;61.65
62025;BME280;47978;49.118;12.146;2023-02-26T11:06:04;97383.00;;;2.17;62.40
62025;BME280;47978;49.118;12.146;2023-02-26T11:10:13;97380.19;;;1.68;64.74
62025;BME280;47978;49.118;12.146;2023-02-26T11:14:15;97383.22;;;1.88;67.45
62025;BME280;47978;49.118;12.146;2023-02-26T11:18:17;97379.06;;;2.08;66.93
62025;BME280;47978;49.118;12.146;2023-02-26T11:22:19;97370.69;;;1.70;66.44
62025;BME280;47978;49.118;12.146;2023-02-26T11:26:25;97373.19;;;1.72;66.83
62025;BME280;47978;49.118;12.146;2023-02-26T11:30:28;97370.72;;;1.92;66.43
62025;BME280;47978;49.118;12.146;2023-02-26T11:34:30;97373.75;;;2.18;66.74
62025;BME280;47978;49.118;12.146;2023-02-26T11:38:31;97373.06;;;2.06;65.27
62025;BME280;47978;49.118;12.146;2023-02-26T11:42:36;97375.72;;;2.00;65.99
62025;BME280;47978;49.118;12.146;2023-02-26T11:46:39;97362.78;;;2.13;65.47
62025;BME280;47978;49.118;12.146;2023-02-26T11:50:44;97366.59;;;2.39;64.29
62025;BME280;47978;49.118;12.146;2023-02-26T11:54:46;97360.84;;;2.62;64.18
62025;BME280;47978;49.118;12.146;2023-02-26T11:58:50;97347.59;;;2.76;61.83
62025;BME280;47978;49.118;12.146;2023-02-26T12:02:55;97352.69;;;2.67;63.71
62025;BME280;47978;49.118;12.146;2023-02-26T12:07:00;97343.69;;;2.67;64.18
62025;BME280;47978;49.118;12.146;2023-02-26T12:11:05;97335.91;;;3.18;63.85
62025;BME280;47978;49.118;12.146;2023-02-26T12:15:14;97342.31;;;2.97;62.47
62025;BME280;47978;49.118;12.146;2023-02-26T12:19:20;97340.44;;;2.70;60.83
62025;BME280;47978;49.118;12.146;2023-02-26T12:28:00;97342.09;;;2.71;63.38
62025;BME280;47978;49.118;12.146;2023-02-26T12:32:13;97330.13;;;2.77;63.29
62025;BME280;47978;49.118;12.146;2023-02-26T12:36:28;97334.03;;;2.86;60.63
62025;BME280;47978;49.118;12.146;2023-02-26T12:49:43;97377.69;;;2.05;70.14
62025;BME280;47978;49.118;12.146;2023-02-26T12:53:51;97367.59;;;1.84;72.91
62025;BME280;47978;49.118;12.146;2023-02-26T12:58:06;97371.53;;;1.71;74.00
62025;BME280;47978;49.118;12.146;2023-02-26T13:02:25;97371.50;;;1.49;73.01
62025;BME280;47978;49.118;12.146;2023-02-26T13:06:41;97369.09;;;1.52;72.61
62025;BME280;47978;49.118;12.146;2023-02-26T13:10:49;97376.03;;;1.60;72.77
62025;BME280;47978;49.118;12.146;2023-02-26T13:14:53;97371.22;;;1.89;72.68
62025;BME280;47978;49.118;12.146;2023-02-26T13:18:59;97362.06;;;2.22;68.21
62025;BME280;47978;49.118;12.146;2023-02-26T13:23:08;97375.22;;;2.53;68.89
62025;BME280;47978;49.118;12.146;2023-02-26T13:27:10;97374.03;;;2.43;66.13
62025;BME280;47978;49.118;12.146;2023-02-26T13:31:13;97369.69;;;2.75;62.89
62025;BME280;47978;49.118;12.146;2023-02-26T13:35:17;97377.94;;;3.12;64.44
62025;BME280;47978;49.118;12.146;2023-02-26T13:39:31;97395.81;;;3.30;59.46
62025;BME280;47978;49.118;12.146;2023-02-26T13:43:37;97390.03;;;2.89;64.74
62025;BME280;47978;49.118;12.146;2023-02-26T13:47:54;97387.69;;;2.21;64.49
62025;BME280;47978;49.118;12.146;2023-02-26T13:51:58;97395.19;;;2.09;66.34
62025;BME280;47978;49.118;12.146;2023-02-26T13:56:06;97401.53;;;1.93;66.81
62025;BME280;47978;49.118;12.146;2023-02-26T14:00:14;97390.09;;;1.96;68.17
62025;BME280;47978;49.118;12.146;2023-02-26T14:04:23;97391.94;;;1.68;66.97
62025;BME280;47978;49.118;12.146;2023-02-26T14:08:26;97389.16;;;1.85;66.08
62025;BME280;47978;49.118;12.146;2023-02-26T14:12:33;97395.38;;;2.02;64.91
62025;BME280;47978;49.118;12.146;2023-02-26T14:16:34;97392.16;;;2.55;64.42
62025;BME280;47978;49.118;12.146;2023-02-26T14:20:36;97393.72;;;3.05;61.60
62025;BME280;47978;49.118;12.146;2023-02-26T14:24:38;97406.88;;;3.13;60.57
62025;BME280;47978;49.118;12.146;2023-02-26T14:28:52;97427.56;;;2.50;67.37
62025;BME280;47978;49.118;12.146;2023-02-26T14:33:05;97423.97;;;2.22;69.02
62025;BME280;47978;49.118;12.146;2023-02-26T14:37:07;97421.94;;;1.90;71.03
62025;BME280;47978;49.118;12.146;2023-02-26T14:41:13;97433.25;;;1.82;69.98
62025;BME280;47978;49.118;12.146;2023-02-26T14:45:24;97442.41;;;1.71;70.51
62025;BME280;47978;49.118;12.146;2023-02-26T14:49:28;97446.88;;;1.60;72.55
62025;BME280;47978;49.118;12.146;2023-02-26T14:53:52;97444.00;;;1.89;72.37
62025;BME280;47978;49.118;12.146;2023-02-26T14:58:01;97446.19;;;2.31;70.08
62025;BME280;47978;49.118;12.146;2023-02-26T15:02:08;97478.22;;;2.40;68.32
62025;BME280;47978;49.118;12.146;2023-02-26T15:06:16;97510.81;;;2.08;70.87
62025;BME280;47978;49.118;12.146;2023-02-26T15:10:28;97510.44;;;1.32;77.42
62025;BME280;47978;49.118;12.146;2023-02-26T15:18:53;97501.94;;;0.83;80.97
62025;BME280;47978;49.118;12.146;2023-02-26T15:23:21;97501.75;;;0.73;80.22
62025;BME280;47978;49.118;12.146;2023-02-26T15:27:28;97507.09;;;0.67;81.35
62025;BME280;47978;49.118;12.146;2023-02-26T15:31:32;97523.59;;;0.49;80.53
62025;BME280;47978;49.118;12.146;2023-02-26T15:35:35;97517.53;;;0.59;79.66
62025;BME280;47978;49.118;12.146;2023-02-26T15:39:36;97527.59;;;0.58;79.88
62025;BME280;47978;49.118;12.146;2023-02-26T15:43:43;97540.97;;;0.60;80.76
62025;BME280;47978;49.118;12.146;2023-02-26T15:47:46;97546.25;;;0.66;80.50
62025;BME280;47978;49.118;12.146;2023-02-26T15:51:51;97550.09;;;0.42;79.35
62025;BME280;47978;49.118;12.146;2023-02-26T15:55:53;97551.34;;;0.51;78.64
62025;BME280;47978;49.118;12.146;2023-02-26T16:00:00;97553.19;;;0.34;79.52
62025;BME280;47978;49.118;12.146;2023-02-26T16:04:02;97565.00;;;0.39;78.70
62025;BME280;47978;49.118;12.146;2023-02-26T16:08:05;97567.97;;;0.38;78.93
62025;BME280;47978;49.118;12.146;2023-02-26T16:12:08;97574.38;;;0.32;78.96
62025;BME280;47978;49.118;12.146;2023-02-26T16:16:11;97584.16;;;0.33;79.49
62025;BME280;47978;49.118;12.146;2023-02-26T16:20:14;97589.13;;;0.24;80.58
62025;BME280;47978;49.118;12.146;2023-02-26T16:24:18;97592.66;;;0.36;78.73
62025;BME280;47978;49.118;12.146;2023-02-26T16:28:20;97591.84;;;0.36;78.85
62025;BME280;47978;49.118;12.146;2023-02-26T16:32:22;97602.25;;;0.27;78.62
62025;BME280;47978;49.118;12.146;2023-02-26T16:36:25;97602.72;;;0.36;76.06
62025;BME280;47978;49.118;12.146;2023-02-26T16:40:32;97603.22;;;0.21;75.27
62025;BME280;47978;49.118;12.146;2023-02-26T16:44:37;97607.94;;;0.14;76.70
62025;BME280;47978;49.118;12.146;2023-02-26T16:48:40;97620.56;;;0.08;76.28
62025;BME280;47978;49.118;12.146;2023-02-26T16:52:45;97635.84;;;-0.03;76.68
62025;BME280;47978;49.118;12.146;2023-02-26T16:56:51;97635.44;;;-0.18;76.86
62025;BME280;47978;49.118;12.146;2023-02-26T17:00:54;97639.13;;;-0.01;75.24
62025;BME280;47978;49.118;12.146;2023-02-26T17:04:57;97636.63;;;-0.26;75.72
62025;BME280;47978;49.118;12.146;2023-02-26T17:08:59;97643.44;;;-0.35;77.23
62025;BME280;47978;49.118;12.146;2023-02-26T17:13:05;97658.13;;;-0.24;76.40
62025;BME280;47978;49.118;12.146;2023-02-26T17:17:10;97671.38;;;-0.46;77.48
62025;BME280;47978;49.118;12.146;2023-02-26T17:21:11;97675.50;;;-0.55;78.21
62025;BME280;47978;49.118;12.146;2023-02-26T17:25:14;97677.59;;;-0.57;78.58
62025;BME280;47978;49.118;12.146;2023-02-26T17:29:18;97681.84;;;-0.61;78.62
62025;BME280;47978;49.118;12.146;2023-02-26T17:33:19;97693.91;;;-0.57;78.27
62025;BME280;47978;49.118;12.146;2023-02-26T17:37:21;97696.75;;;-0.52;77.30
62025;BME280;47978;49.118;12.146;2023-02-26T17:41:23;97707.25;;;-0.56;78.11
62025;BME280;47978;49.118;12.146;2023-02-26T17:45:26;97697.38;;;-0.50;77.43
62025;BME280;47978;49.118;12.146;2023-02-26T17:49:28;97699.34;;;-0.57;77.64
62025;BME280;47978;49.118;12.146;2023-02-26T17:53:29;97699.16;;;-0.44;75.33
62025;BME280;47978;49.118;12.146;2023-02-26T17:57:30;97706.03;;;-0.60;76.87
62025;BME280;47978;49.118;12.146;2023-02-26T18:01:33;97709.84;;;-0.61;76.47
62025;BME280;47978;49.118;12.146;2023-02-26T18:05:35;97708.53;;;-0.58;76.87
62025;BME280;47978;49.118;12.146;2023-02-26T18:09:36;97710.19;;;-0.57;75.84
62025;BME280;47978;49.118;12.146;2023-02-26T18:13:37;97723.97;;;-0.71;77.02
62025;BME280;47978;49.118;12.146;2023-02-26T18:17:40;97722.69;;;-0.68;76.30
62025;BME280;47978;49.118;12.146;2023-02-26T18:21:42;97720.69;;;-0.61;75.53
62025;BME280;47978;49.118;12.146;2023-02-26T18:25:44;97726.69;;;-0.71;75.54
62025;BME280;47978;49.118;12.146;2023-02-26T18:29:45;97733.59;;;-0.75;76.13
62025;BME280;47978;49.118;12.146;2023-02-26T18:33:48;97730.97;;;-0.81;76.51
62025;BME280;47978;49.118;12.146;2023-02-26T18:37:50;97730.88;;;-0.75;75.58
62025;BME280;47978;49.118;12.146;2023-02-26T18:41:52;97739.66;;;-0.73;75.50
62025;BME280;47978;49.118;12.146;2023-02-26T18:45:53;97740.09;;;-0.76;75.96
62025;BME280;47978;49.118;12.146;2023-02-26T18:49:56;97747.28;;;-0.81;75.70
62025;BME280;47978;49.118;12.146;2023-02-26T18:53:57;97743.44;;;-0.74;75.93
62025;BME280;47978;49.118;12.146;2023-02-26T18:57:59;97751.25;;;-0.84;76.60
62025;BME280;47978;49.118;12.146;2023-02-26T19:02:00;97754.44;;;-0.87;76.48
62025;BME280;47978;49.118;12.146;2023-02-26T19:06:04;97761.06;;;-0.83;75.33
62025;BME280;47978;49.118;12.146;2023-02-26T19:10:06;97763.47;;;-0.93;75.68
62025;BME280;47978;49.118;12.146;2023-02-26T19:14:08;97758.22;;;-0.88;75.96
62025;BME280;47978;49.118;12.146;2023-02-26T19:18:09;97759.53;;;-0.97;75.91
62025;BME280;47978;49.118;12.146;2023-02-26T19:22:12;97768.13;;;-1.00;75.78
62025;BME280;47978;49.118;12.146;2023-02-26T19:26:13;97783.53;;;-0.94;74.97
62025;BME280;47978;49.118;12.146;2023-02-26T19:30:15;97784.22;;;-0.99;75.97
62025;BME280;47978;49.118;12.146;2023-02-26T19:34:16;97792.72;;;-0.95;75.91
62025;BME280;47978;49.118;12.146;2023-02-26T19:38:19;97786.22;;;-0.94;75.86
62025;BME280;47978;49.118;12.146;2023-02-26T19:42:21;97786.44;;;-1.14;76.97
62025;BME280;47978;49.118;12.146;2023-02-26T19:46:22;97790.53;;;-1.05;75.41
62025;BME280;47978;49.118;12.146;2023-02-26T19:50:23;97794.69;;;-1.02;75.85
62025;BME280;47978;49.118;12.146;2023-02-26T19:54:26;97800.53;;;-1.05;75.26
62025;BME280;47978;49.118;12.146;2023-02-26T19:58:28;97807.19;;;-1.01;75.70
62025;BME280;47978;49.118;12.146;2023-02-26T20:02:29;97809.91;;;-1.01;75.33
62025;BME280;47978;49.118;12.146;2023-02-26T20:06:31;97814.88;;;-0.98;74.70
62025;BME280;47978;49.118;12.146;2023-02-26T20:10:34;97809.19;;;-0.90;74.14
62025;BME280;47978;49.118;12.146;2023-02-26T20:14:35;97813.28;;;-1.06;75.23
62025;BME280;47978;49.118;12.146;2023-02-26T20:18:37;97825.41;;;-1.08;74.61
62025;BME280;47978;49.118;12.146;2023-02-26T20:22:38;97831.91;;;-1.09;75.71
62025;BME280;47978;49.118;12.146;2023-02-26T20:26:41;97824.66;;;-1.16;75.43
62025;BME280;47978;49.118;12.146;2023-02-26T20:30:42;97833.25;;;-1.19;76.40
62025;BME280;47978;49.118;12.146;2023-02-26T20:34:44;97834.28;;;-1.20;75.25
62025;BME280;47978;49.118;12.146;2023-02-26T20:38:45;97835.41;;;-1.27;76.44
62025;BME280;47978;49.118;12.146;2023-02-26T20:42:48;97833.91;;;-1.23;76.08
62025;BME280;47978;49.118;12.146;2023-02-26T20:46:49;97831.16;;;-1.17;74.94
62025;BME280;47978;49.118;12.146;2023-02-26T20:50:51;97835.72;;;-1.17;74.82
62025;BME280;47978;49.118;12.146;2023-02-26T20:54:52;97825.66;;;-1.10;74.14
62025;BME280;47978;49.118;12.146;2023-02-26T20:58:55;97819.84;;;-1.14;74.74
62025;BME280;47978;49.118;12.146;2023-02-26T21:02:56;97835.06;;;-1.13;74.63
62025;BME280;47978;49.118;12.146;2023-02-26T21:06:58;97838.00;;;-1.14;74.30
62025;BME280;47978;49.118;12.146;2023-02-26T21:10:59;97830.72;;;-1.14;74.30
62025;BME280;47978;49.118;12.146;2023-02-26T21:15:02;97830.75;;;-1.20;73.20
62025;BME280;47978;49.118;12.146;2023-02-26T21:19:04;97840.31;;;-1.18;73.96
62025;BME280;47978;49.118;12.146;2023-02-26T21:23:05;97845.25;;;-1.08;73.46
62025;BME280;47978;49.118;12.146;2023-02-26T21:27:07;97855.41;;;-1.22;74.10
62025;BME280;47978;49.118;12.146;2023-02-26T21:31:09;97855.13;;;-1.14;73.45
62025;BME280;47978;49.118;12.146;2023-02-26T21:35:11;97849.84;;;-1.08;72.98
62025;BME280;47978;49.118;12.146;2023-02-26T21:39:12;97861.84;;;-1.23;73.69